Strona główna
METAR-TAF:

METAR-TAF

Lotnisko :

Olney-Noble Airport

Olney-Noble, Illinois, Stany Zjednoczone

Szerokość geograficzna: 38-43-19N, Długość geograficzna: 088-10-35W, wysokość: 147 m

Aktualna obserwacja pogody

Raport powstał 16 minut temu, godzina 06:15 UTC
Cisza
Temperatura 10°C
Wilgotność 93%
Ciśnienie 1020 hPa
Widzialność: 16.1 km
Przerywane chmury na wysokości 2400 ft
Przerywane chmury na wysokości 3100 ft

METAR: KOLY 060615Z AUTO 00000KT 10SM BKN024 BKN031 10/09 A3013 RMK AO2 T00970092

czas: 01:31 (06:31 UTC)


TAF: brakujący

Obserwacja i prognoza pogody dla ponad 4000 lotnisk (raport METAR i TAF).

Dostępne stacje oznaczono żółtymi i czerwonymi punktami na mapie.

Najedź kursorem aby zobaczyć nazwę stacji.

Kliknij aby zobaczyć obserwacje i prognozy pogody.

Aby zmienić mapę: kliknij na zielony przycisk z czarnym krzyżykiem, aby powiększyć; na zielony przycisk z myślnikiem, aby pomniejszyć; na zielone strzałki, aby przejść do map sąsiednich.


METAR-TAF: